Terminal Aerodrome Forecast
Issued by NWS

Home | Current Version | Previous Version | Text Only | Print | Product List | Glossary On
Versions: 1 2 3 4 5 6 7 8 9 10 11 12 13 14 15 16 17 18 19 20 21 22 23 24 25 26 27 28 29 30 31 32 33 34 35 36 37 38 39 40 41 42 43 44 45 46 47 48 49
000
FTUS43 KMKX 141630 AAC
TAFUES
TAF AMD
KUES 141630Z 1417/1512 16012G18KT 5SM -SN OVC020
     FM141900 15012G18KT 2SM -SN OVC020
      TEMPO 1419/1423 1SM -SN OVC025
     FM142300 14011KT 2SM -SN OVC020
     FM150900 17004KT 3SM -SN OVC015
     FM151000 18004KT P6SM VCSH OVC015=

USA.gov is the U.S. government's official web portal to all federal, state and local government web resources and services.